sensor_id;sensor_type;location;lat;lon;timestamp;P1;P2;P0
46302;PMS7003;32029;51.358;5.628;2022-09-01T00:01:37;1.00;1.00;1.00
46302;PMS7003;32029;51.358;5.628;2022-09-01T00:04:08;2.33;1.00;1.00
46302;PMS7003;32029;51.358;5.628;2022-09-01T00:06:38;2.00;2.00;1.67
46302;PMS7003;32029;51.358;5.628;2022-09-01T00:09:07;1.00;1.00;1.00
46302;PMS7003;32029;51.358;5.628;2022-09-01T00:11:36;1.00;1.00;1.00
46302;PMS7003;32029;51.358;5.628;2022-09-01T00:14:04;2.00;2.00;2.00
46302;PMS7003;32029;51.358;5.628;2022-09-01T00:16:32;1.00;1.00;1.00
46302;PMS7003;32029;51.358;5.628;2022-09-01T00:18:59;1.67;1.67;1.00
46302;PMS7003;32029;51.358;5.628;2022-09-01T00:21:29;1.00;1.00;1.00
46302;PMS7003;32029;51.358;5.628;2022-09-01T00:24:01;0.33;0.33;0.00
46302;PMS7003;32029;51.358;5.628;2022-09-01T00:26:28;2.67;1.67;1.00
46302;PMS7003;32029;51.358;5.628;2022-09-01T00:28:55;2.00;2.00;2.00
46302;PMS7003;32029;51.358;5.628;2022-09-01T00:31:23;2.33;2.00;1.67
46302;PMS7003;32029;51.358;5.628;2022-09-01T00:33:50;1.67;1.67;1.00
46302;PMS7003;32029;51.358;5.628;2022-09-01T00:36:18;1.00;1.00;1.00
46302;PMS7003;32029;51.358;5.628;2022-09-01T00:38:45;1.00;1.00;1.00
46302;PMS7003;32029;51.358;5.628;2022-09-01T00:41:14;1.00;1.00;1.00
46302;PMS7003;32029;51.358;5.628;2022-09-01T00:43:46;1.33;1.33;1.00
46302;PMS7003;32029;51.358;5.628;2022-09-01T00:46:16;2.00;2.00;1.67
46302;PMS7003;32029;51.358;5.628;2022-09-01T00:48:56;2.00;2.00;1.33
46302;PMS7003;32029;51.358;5.628;2022-09-01T00:51:26;1.00;1.00;1.00
46302;PMS7003;32029;51.358;5.628;2022-09-01T00:53:54;1.00;1.00;1.00
46302;PMS7003;32029;51.358;5.628;2022-09-01T00:56:23;1.00;1.00;1.00
46302;PMS7003;32029;51.358;5.628;2022-09-01T00:58:50;3.00;2.00;1.33
46302;PMS7003;32029;51.358;5.628;2022-09-01T01:01:18;4.00;2.00;1.67
46302;PMS7003;32029;51.358;5.628;2022-09-01T01:03:45;0.00;0.00;0.00
46302;PMS7003;32029;51.358;5.628;2022-09-01T01:06:12;1.33;1.33;1.00
46302;PMS7003;32029;51.358;5.628;2022-09-01T01:08:43;4.67;1.33;1.00
46302;PMS7003;32029;51.358;5.628;2022-09-01T01:11:17;2.00;2.00;2.00
46302;PMS7003;32029;51.358;5.628;2022-09-01T01:16:20;3.00;1.33;1.00
46302;PMS7003;32029;51.358;5.628;2022-09-01T01:18:49;2.00;2.00;2.00
46302;PMS7003;32029;51.358;5.628;2022-09-01T01:21:18;3.00;1.33;1.33
46302;PMS7003;32029;51.358;5.628;2022-09-01T01:26:53;6.00;3.33;2.00
46302;PMS7003;32029;51.358;5.628;2022-09-01T01:29:25;2.00;2.00;2.00
46302;PMS7003;32029;51.358;5.628;2022-09-01T01:31:59;2.33;2.33;2.00
46302;PMS7003;32029;51.358;5.628;2022-09-01T01:34:27;4.00;3.00;2.00
46302;PMS7003;32029;51.358;5.628;2022-09-01T01:36:56;4.00;2.00;2.00
46302;PMS7003;32029;51.358;5.628;2022-09-01T01:39:25;3.00;2.00;2.00
46302;PMS7003;32029;51.358;5.628;2022-09-01T01:41:53;4.00;3.00;2.00
46302;PMS7003;32029;51.358;5.628;2022-09-01T01:44:23;2.00;2.00;1.00
46302;PMS7003;32029;51.358;5.628;2022-09-01T01:46:53;3.67;3.67;3.00
46302;PMS7003;32029;51.358;5.628;2022-09-01T01:49:24;2.33;2.33;2.00
46302;PMS7003;32029;51.358;5.628;2022-09-01T01:51:54;3.67;2.00;1.00
46302;PMS7003;32029;51.358;5.628;2022-09-01T01:54:23;4.00;3.00;2.00
46302;PMS7003;32029;51.358;5.628;2022-09-01T01:56:59;2.67;2.00;2.00
46302;PMS7003;32029;51.358;5.628;2022-09-01T01:59:28;4.20;4.20;3.80
46302;PMS7003;32029;51.358;5.628;2022-09-01T02:01:56;4.00;3.00;3.00
46302;PMS7003;32029;51.358;5.628;2022-09-01T02:04:23;3.00;3.00;3.00
46302;PMS7003;32029;51.358;5.628;2022-09-01T02:06:50;3.00;3.00;3.00
46302;PMS7003;32029;51.358;5.628;2022-09-01T02:09:19;3.00;3.00;2.80
46302;PMS7003;32029;51.358;5.628;2022-09-01T02:11:48;5.00;5.00;4.00
46302;PMS7003;32029;51.358;5.628;2022-09-01T02:14:20;6.33;4.00;4.00
46302;PMS7003;32029;51.358;5.628;2022-09-01T02:16:48;4.00;4.00;3.00
46302;PMS7003;32029;51.358;5.628;2022-09-01T02:19:15;6.67;5.33;4.00
46302;PMS7003;32029;51.358;5.628;2022-09-01T02:21:46;4.00;3.00;2.33
46302;PMS7003;32029;51.358;5.628;2022-09-01T02:24:20;6.00;6.00;5.00
46302;PMS7003;32029;51.358;5.628;2022-09-01T02:26:49;4.67;3.00;3.00
46302;PMS7003;32029;51.358;5.628;2022-09-01T02:29:20;6.00;5.00;5.00
46302;PMS7003;32029;51.358;5.628;2022-09-01T02:31:49;6.00;4.67;3.33
46302;PMS7003;32029;51.358;5.628;2022-09-01T02:34:19;6.33;6.33;5.00
46302;PMS7003;32029;51.358;5.628;2022-09-01T02:36:50;5.00;5.00;4.00
46302;PMS7003;32029;51.358;5.628;2022-09-01T02:39:23;8.00;5.00;4.33
46302;PMS7003;32029;51.358;5.628;2022-09-01T02:41:54;6.00;6.00;5.67
46302;PMS7003;32029;51.358;5.628;2022-09-01T02:44:21;8.00;7.00;6.00
46302;PMS7003;32029;51.358;5.628;2022-09-01T02:46:48;4.67;4.00;3.67
46302;PMS7003;32029;51.358;5.628;2022-09-01T02:49:21;6.33;5.67;4.67
46302;PMS7003;32029;51.358;5.628;2022-09-01T02:51:53;5.00;5.00;4.00
46302;PMS7003;32029;51.358;5.628;2022-09-01T02:54:26;8.40;6.60;5.40
46302;PMS7003;32029;51.358;5.628;2022-09-01T02:56:55;6.33;5.33;4.00
46302;PMS7003;32029;51.358;5.628;2022-09-01T02:59:23;6.33;6.00;5.00
46302;PMS7003;32029;51.358;5.628;2022-09-01T03:01:53;4.00;4.00;3.33
46302;PMS7003;32029;51.358;5.628;2022-09-01T03:04:20;7.00;6.00;5.00
46302;PMS7003;32029;51.358;5.628;2022-09-01T03:06:47;5.00;5.00;4.00
46302;PMS7003;32029;51.358;5.628;2022-09-01T03:09:16;4.00;4.00;4.00
46302;PMS7003;32029;51.358;5.628;2022-09-01T03:11:44;8.33;5.00;4.00
46302;PMS7003;32029;51.358;5.628;2022-09-01T03:14:13;4.00;4.00;4.00
46302;PMS7003;32029;51.358;5.628;2022-09-01T03:16:40;3.00;3.00;3.00
46302;PMS7003;32029;51.358;5.628;2022-09-01T03:19:07;4.33;3.00;3.00
46302;PMS7003;32029;51.358;5.628;2022-09-01T03:21:40;2.67;2.67;2.33
46302;PMS7003;32029;51.358;5.628;2022-09-01T03:24:10;3.00;3.00;3.00
46302;PMS7003;32029;51.358;5.628;2022-09-01T03:26:40;4.67;3.00;3.00
46302;PMS7003;32029;51.358;5.628;2022-09-01T03:29:08;5.00;4.00;4.00
46302;PMS7003;32029;51.358;5.628;2022-09-01T03:31:36;3.00;3.00;2.33
46302;PMS7003;32029;51.358;5.628;2022-09-01T03:34:04;5.67;4.00;3.00
46302;PMS7003;32029;51.358;5.628;2022-09-01T03:36:31;3.00;3.00;2.33
46302;PMS7003;32029;51.358;5.628;2022-09-01T03:38:59;6.00;4.33;3.00
46302;PMS7003;32029;51.358;5.628;2022-09-01T03:41:27;3.00;3.00;2.00
46302;PMS7003;32029;51.358;5.628;2022-09-01T03:43:54;4.00;4.00;3.67
46302;PMS7003;32029;51.358;5.628;2022-09-01T03:46:23;3.00;3.00;3.00
46302;PMS7003;32029;51.358;5.628;2022-09-01T03:48:54;3.00;3.00;2.67
46302;PMS7003;32029;51.358;5.628;2022-09-01T03:51:24;3.00;2.00;2.00
46302;PMS7003;32029;51.358;5.628;2022-09-01T03:53:51;2.00;2.00;1.33
46302;PMS7003;32029;51.358;5.628;2022-09-01T03:56:22;3.00;3.00;3.00
46302;PMS7003;32029;51.358;5.628;2022-09-01T03:58:51;3.00;3.00;3.00
46302;PMS7003;32029;51.358;5.628;2022-09-01T04:01:21;4.33;3.33;3.00
46302;PMS7003;32029;51.358;5.628;2022-09-01T04:03:48;5.00;4.00;3.67
46302;PMS7003;32029;51.358;5.628;2022-09-01T04:06:17;4.67;4.67;4.00
46302;PMS7003;32029;51.358;5.628;2022-09-01T04:08:45;4.00;4.00;3.00
46302;PMS7003;32029;51.358;5.628;2022-09-01T04:11:14;4.00;4.00;4.00
46302;PMS7003;32029;51.358;5.628;2022-09-01T04:13:45;6.00;6.00;4.60
46302;PMS7003;32029;51.358;5.628;2022-09-01T04:16:16;4.67;3.33;3.33
46302;PMS7003;32029;51.358;5.628;2022-09-01T04:19:04;6.33;6.33;4.67
46302;PMS7003;32029;51.358;5.628;2022-09-01T04:21:41;6.00;6.00;5.00
46302;PMS7003;32029;51.358;5.628;2022-09-01T04:24:09;4.00;0.00;0.00
46302;PMS7003;32029;51.358;5.628;2022-09-01T04:26:38;8.33;8.00;5.67
46302;PMS7003;32029;51.358;5.628;2022-09-01T04:29:07;8.80;7.40;5.60
46302;PMS7003;32029;51.358;5.628;2022-09-01T04:31:36;13.00;9.67;7.00
46302;PMS7003;32029;51.358;5.628;2022-09-01T04:34:07;9.60;9.60;7.20
46302;PMS7003;32029;51.358;5.628;2022-09-01T04:36:41;10.80;8.60;6.40
46302;PMS7003;32029;51.358;5.628;2022-09-01T04:39:11;10.80;8.20;7.20
46302;PMS7003;32029;51.358;5.628;2022-09-01T04:41:42;10.67;10.67;8.00
46302;PMS7003;32029;51.358;5.628;2022-09-01T04:44:12;10.20;8.40;6.80
46302;PMS7003;32029;51.358;5.628;2022-09-01T04:46:45;9.20;7.20;6.60
46302;PMS7003;32029;51.358;5.628;2022-09-01T04:49:13;11.33;9.33;8.00
46302;PMS7003;32029;51.358;5.628;2022-09-01T04:51:45;8.00;7.00;6.00
46302;PMS7003;32029;51.358;5.628;2022-09-01T04:54:15;11.40;7.80;6.80
46302;PMS7003;32029;51.358;5.628;2022-09-01T04:56:44;10.00;7.80;6.00
46302;PMS7003;32029;51.358;5.628;2022-09-01T04:59:16;13.80;13.20;9.00
46302;PMS7003;32029;51.358;5.628;2022-09-01T05:01:50;8.20;8.20;6.60
46302;PMS7003;32029;51.358;5.628;2022-09-01T05:04:21;10.00;8.67;7.33
46302;PMS7003;32029;51.358;5.628;2022-09-01T05:06:53;11.20;11.00;7.20
46302;PMS7003;32029;51.358;5.628;2022-09-01T05:09:27;9.67;8.00;6.67
46302;PMS7003;32029;51.358;5.628;2022-09-01T05:11:57;12.60;12.00;8.40
46302;PMS7003;32029;51.358;5.628;2022-09-01T05:14:27;17.00;12.00;9.33
46302;PMS7003;32029;51.358;5.628;2022-09-01T05:16:56;11.00;9.60;7.00
46302;PMS7003;32029;51.358;5.628;2022-09-01T05:19:24;14.67;12.33;9.00
46302;PMS7003;32029;51.358;5.628;2022-09-01T05:21:56;17.00;11.00;6.00
46302;PMS7003;32029;51.358;5.628;2022-09-01T05:24:27;13.00;13.00;8.67
46302;PMS7003;32029;51.358;5.628;2022-09-01T05:26:55;20.67;17.67;13.00
46302;PMS7003;32029;51.358;5.628;2022-09-01T05:29:23;15.00;13.67;11.00
46302;PMS7003;32029;51.358;5.628;2022-09-01T05:31:53;19.33;15.33;12.33
46302;PMS7003;32029;51.358;5.628;2022-09-01T05:34:21;21.00;20.00;15.33
46302;PMS7003;32029;51.358;5.628;2022-09-01T05:36:54;22.00;19.67;15.00
46302;PMS7003;32029;51.358;5.628;2022-09-01T05:39:22;20.67;17.33;13.00
46302;PMS7003;32029;51.358;5.628;2022-09-01T05:41:50;22.33;18.33;12.67
46302;PMS7003;32029;51.358;5.628;2022-09-01T05:44:19;36.33;26.00;17.00
46302;PMS7003;32029;51.358;5.628;2022-09-01T05:46:49;32.67;27.00;18.33
46302;PMS7003;32029;51.358;5.628;2022-09-01T05:49:16;20.33;17.00;14.00
46302;PMS7003;32029;51.358;5.628;2022-09-01T05:51:45;33.33;24.33;17.33
46302;PMS7003;32029;51.358;5.628;2022-09-01T05:54:19;36.33;28.67;22.00
46302;PMS7003;32029;51.358;5.628;2022-09-01T05:56:49;42.67;32.33;21.67
46302;PMS7003;32029;51.358;5.628;2022-09-01T05:59:17;36.33;29.00;19.33
46302;PMS7003;32029;51.358;5.628;2022-09-01T06:01:47;50.33;37.33;25.33
46302;PMS7003;32029;51.358;5.628;2022-09-01T06:04:15;44.00;30.33;21.67
46302;PMS7003;32029;51.358;5.628;2022-09-01T06:06:44;56.33;46.00;28.00
46302;PMS7003;32029;51.358;5.628;2022-09-01T06:09:16;56.00;46.00;30.00
46302;PMS7003;32029;51.358;5.628;2022-09-01T06:11:45;65.00;49.25;30.25
46302;PMS7003;32029;51.358;5.628;2022-09-01T06:14:14;63.75;49.50;32.00
46302;PMS7003;32029;51.358;5.628;2022-09-01T06:16:42;67.00;50.00;31.50
46302;PMS7003;32029;51.358;5.628;2022-09-01T06:19:12;63.67;45.67;26.67
46302;PMS7003;32029;51.358;5.628;2022-09-01T06:21:39;65.25;49.00;32.00
46302;PMS7003;32029;51.358;5.628;2022-09-01T06:24:07;62.75;50.25;32.00
46302;PMS7003;32029;51.358;5.628;2022-09-01T06:26:36;68.25;51.25;35.00
46302;PMS7003;32029;51.358;5.628;2022-09-01T06:29:08;66.00;51.00;34.00
46302;PMS7003;32029;51.358;5.628;2022-09-01T06:31:41;66.00;48.33;34.33
46302;PMS7003;32029;51.358;5.628;2022-09-01T06:34:10;75.25;55.25;34.00
46302;PMS7003;32029;51.358;5.628;2022-09-01T06:36:40;58.33;45.33;24.00
46302;PMS7003;32029;51.358;5.628;2022-09-01T06:39:09;62.50;48.00;33.25
46302;PMS7003;32029;51.358;5.628;2022-09-01T06:41:46;65.00;52.67;33.67
46302;PMS7003;32029;51.358;5.628;2022-09-01T06:44:19;67.50;52.75;33.00
46302;PMS7003;32029;51.358;5.628;2022-09-01T06:46:49;68.25;51.25;33.00
46302;PMS7003;32029;51.358;5.628;2022-09-01T06:49:19;73.25;54.75;35.75
46302;PMS7003;32029;51.358;5.628;2022-09-01T06:51:47;70.50;54.00;35.00
46302;PMS7003;32029;51.358;5.628;2022-09-01T06:54:18;73.50;56.00;35.00
46302;PMS7003;32029;51.358;5.628;2022-09-01T06:56:46;77.25;59.00;37.50
46302;PMS7003;32029;51.358;5.628;2022-09-01T06:59:12;16.50;5.00;5.00
46302;PMS7003;32029;51.358;5.628;2022-09-01T07:01:40;81.00;62.50;41.00
46302;PMS7003;32029;51.358;5.628;2022-09-01T07:04:06;85.00;73.00;40.50
46302;PMS7003;32029;51.358;5.628;2022-09-01T07:06:33;78.50;64.00;42.50
46302;PMS7003;32029;51.358;5.628;2022-09-01T07:09:01;71.50;54.75;35.25
46302;PMS7003;32029;51.358;5.628;2022-09-01T07:11:30;73.50;54.50;34.75
46302;PMS7003;32029;51.358;5.628;2022-09-01T07:14:01;71.00;54.50;35.25
46302;PMS7003;32029;51.358;5.628;2022-09-01T07:16:32;74.25;56.00;35.50
46302;PMS7003;32029;51.358;5.628;2022-09-01T07:19:06;73.25;55.75;35.75
46302;PMS7003;32029;51.358;5.628;2022-09-01T07:21:42;65.50;50.50;34.00
46302;PMS7003;32029;51.358;5.628;2022-09-01T07:24:10;61.33;49.33;32.00
46302;PMS7003;32029;51.358;5.628;2022-09-01T07:26:39;64.75;49.00;32.25
46302;PMS7003;32029;51.358;5.628;2022-09-01T07:29:09;59.50;46.00;31.00
46302;PMS7003;32029;51.358;5.628;2022-09-01T07:31:39;57.25;44.50;29.75
46302;PMS7003;32029;51.358;5.628;2022-09-01T07:34:11;40.25;33.75;22.75
46302;PMS7003;32029;51.358;5.628;2022-09-01T07:36:41;39.33;33.00;24.00
46302;PMS7003;32029;51.358;5.628;2022-09-01T07:39:11;32.00;27.00;18.00
46302;PMS7003;32029;51.358;5.628;2022-09-01T07:41:39;23.00;20.50;13.00
46302;PMS7003;32029;51.358;5.628;2022-09-01T07:44:08;15.00;14.33;11.00
46302;PMS7003;32029;51.358;5.628;2022-09-01T07:46:40;10.60;8.60;8.00
46302;PMS7003;32029;51.358;5.628;2022-09-01T07:49:08;8.40;8.40;7.00
46302;PMS7003;32029;51.358;5.628;2022-09-01T07:51:36;7.40;7.00;6.00
46302;PMS7003;32029;51.358;5.628;2022-09-01T07:54:04;6.00;6.00;5.40
46302;PMS7003;32029;51.358;5.628;2022-09-01T07:56:31;8.00;5.67;5.00
46302;PMS7003;32029;51.358;5.628;2022-09-01T07:58:59;7.20;6.20;5.80
46302;PMS7003;32029;51.358;5.628;2022-09-01T08:01:28;7.00;7.00;6.00
46302;PMS7003;32029;51.358;5.628;2022-09-01T08:03:57;7.00;5.20;5.00
46302;PMS7003;32029;51.358;5.628;2022-09-01T08:06:29;7.20;6.20;5.00
46302;PMS7003;32029;51.358;5.628;2022-09-01T08:08:57;12.40;9.40;6.00
46302;PMS7003;32029;51.358;5.628;2022-09-01T08:11:27;7.00;7.00;7.00
46302;PMS7003;32029;51.358;5.628;2022-09-01T08:13:57;6.00;6.00;4.60
46302;PMS7003;32029;51.358;5.628;2022-09-01T08:16:30;8.00;7.20;6.20
46302;PMS7003;32029;51.358;5.628;2022-09-01T08:18:57;9.33;8.33;8.00
46302;PMS7003;32029;51.358;5.628;2022-09-01T08:21:26;9.00;7.00;6.60
46302;PMS7003;32029;51.358;5.628;2022-09-01T08:23:54;6.80;6.40;6.00
46302;PMS7003;32029;51.358;5.628;2022-09-01T08:26:23;8.80;7.80;6.00
46302;PMS7003;32029;51.358;5.628;2022-09-01T08:28:51;8.00;7.33;6.67
46302;PMS7003;32029;51.358;5.628;2022-09-01T08:31:19;8.00;7.33;6.00
46302;PMS7003;32029;51.358;5.628;2022-09-01T08:33:47;6.00;4.00;3.00
46302;PMS7003;32029;51.358;5.628;2022-09-01T08:36:16;6.80;6.80;5.80
46302;PMS7003;32029;51.358;5.628;2022-09-01T08:38:44;7.00;7.00;5.20
46302;PMS7003;32029;51.358;5.628;2022-09-01T08:41:21;4.67;4.67;3.33
46302;PMS7003;32029;51.358;5.628;2022-09-01T08:46:42;5.33;5.33;4.67
46302;PMS7003;32029;51.358;5.628;2022-09-01T08:49:20;5.40;5.00;4.00
46302;PMS7003;32029;51.358;5.628;2022-09-01T08:51:52;5.20;5.00;4.20
46302;PMS7003;32029;51.358;5.628;2022-09-01T08:54:30;7.00;6.33;5.00
46302;PMS7003;32029;51.358;5.628;2022-09-01T08:59:48;6.00;5.60;4.60
46302;PMS7003;32029;51.358;5.628;2022-09-01T09:05:30;6.33;4.67;4.67
46302;PMS7003;32029;51.358;5.628;2022-09-01T09:10:57;6.80;5.80;4.80
46302;PMS7003;32029;51.358;5.628;2022-09-01T09:16:13;7.00;6.00;4.67
46302;PMS7003;32029;51.358;5.628;2022-09-01T09:18:50;4.67;4.67;3.67
46302;PMS7003;32029;51.358;5.628;2022-09-01T09:21:38;5.00;4.00;3.00
46302;PMS7003;32029;51.358;5.628;2022-09-01T09:27:19;5.67;5.00;4.00
46302;PMS7003;32029;51.358;5.628;2022-09-01T09:29:54;3.20;3.20;3.00
46302;PMS7003;32029;51.358;5.628;2022-09-01T09:32:24;4.00;4.00;3.00
46302;PMS7003;32029;51.358;5.628;2022-09-01T09:35:34;4.00;3.00;2.00
46302;PMS7003;32029;51.358;5.628;2022-09-01T09:41:01;2.67;1.33;1.33
46302;PMS7003;32029;51.358;5.628;2022-09-01T09:43:33;1.67;1.67;1.00
46302;PMS7003;32029;51.358;5.628;2022-09-01T09:49:18;4.33;2.00;2.00
46302;PMS7003;32029;51.358;5.628;2022-09-01T09:51:47;3.00;3.00;2.00
46302;PMS7003;32029;51.358;5.628;2022-09-01T09:54:36;1.40;1.00;0.80
46302;PMS7003;32029;51.358;5.628;2022-09-01T09:57:08;1.00;1.00;0.33
46302;PMS7003;32029;51.358;5.628;2022-09-01T10:04:51;2.00;1.00;0.67
46302;PMS7003;32029;51.358;5.628;2022-09-01T10:07:24;7.80;6.00;5.00
46302;PMS7003;32029;51.358;5.628;2022-09-01T10:09:56;9.60;6.00;5.80
46302;PMS7003;32029;51.358;5.628;2022-09-01T10:12:26;3.00;3.00;2.00
46302;PMS7003;32029;51.358;5.628;2022-09-01T10:14:57;3.00;3.00;2.00
46302;PMS7003;32029;51.358;5.628;2022-09-01T10:17:31;3.00;3.00;2.00
46302;PMS7003;32029;51.358;5.628;2022-09-01T10:20:11;0.00;0.00;0.00
46302;PMS7003;32029;51.358;5.628;2022-09-01T10:22:44;3.00;2.20;2.00
46302;PMS7003;32029;51.358;5.628;2022-09-01T10:25:25;3.67;1.67;1.33
46302;PMS7003;32029;51.358;5.628;2022-09-01T10:28:07;5.40;3.80;3.00
46302;PMS7003;32029;51.358;5.628;2022-09-01T10:30:41;3.33;2.67;2.00
46302;PMS7003;32029;51.358;5.628;2022-09-01T10:33:11;3.00;1.67;1.67
46302;PMS7003;32029;51.358;5.628;2022-09-01T10:35:42;2.00;2.00;2.00
46302;PMS7003;32029;51.358;5.628;2022-09-01T10:38:16;2.00;2.00;2.00
46302;PMS7003;32029;51.358;5.628;2022-09-01T10:40:50;1.00;1.00;1.00
46302;PMS7003;32029;51.358;5.628;2022-09-01T10:43:37;4.00;3.00;2.67
46302;PMS7003;32029;51.358;5.628;2022-09-01T10:48:48;3.00;1.20;1.00
46302;PMS7003;32029;51.358;5.628;2022-09-01T10:53:44;2.00;2.00;2.00
46302;PMS7003;32029;51.358;5.628;2022-09-01T10:58:58;1.00;1.00;1.00
46302;PMS7003;32029;51.358;5.628;2022-09-01T11:04:06;3.00;2.00;1.33
46302;PMS7003;32029;51.358;5.628;2022-09-01T11:06:53;1.80;1.80;1.40
46302;PMS7003;32029;51.358;5.628;2022-09-01T11:09:35;2.00;2.00;1.00
46302;PMS7003;32029;51.358;5.628;2022-09-01T11:14:53;2.60;1.80;1.20
46302;PMS7003;32029;51.358;5.628;2022-09-01T11:17:24;2.67;2.67;2.00
46302;PMS7003;32029;51.358;5.628;2022-09-01T11:20:01;4.40;4.40;3.60
46302;PMS7003;32029;51.358;5.628;2022-09-01T11:22:37;4.60;2.80;2.20
46302;PMS7003;32029;51.358;5.628;2022-09-01T11:27:54;13.67;12.33;11.00
46302;PMS7003;32029;51.358;5.628;2022-09-01T11:32:58;4.80;4.80;4.80
46302;PMS7003;32029;51.358;5.628;2022-09-01T11:35:39;4.40;4.00;3.80
46302;PMS7003;32029;51.358;5.628;2022-09-01T11:38:07;4.00;4.00;3.00
46302;PMS7003;32029;51.358;5.628;2022-09-01T11:40:38;5.60;3.60;3.20
46302;PMS7003;32029;51.358;5.628;2022-09-01T11:43:07;6.40;6.40;4.00
46302;PMS7003;32029;51.358;5.628;2022-09-01T11:46:27;5.20;5.20;5.00
46302;PMS7003;32029;51.358;5.628;2022-09-01T11:48:49;2.00;2.00;1.00
46302;PMS7003;32029;51.358;5.628;2022-09-01T11:51:17;1.00;1.00;0.80
46302;PMS7003;32029;51.358;5.628;2022-09-01T11:53:48;2.80;2.00;1.00
46302;PMS7003;32029;51.358;5.628;2022-09-01T11:56:27;1.00;1.00;1.00
46302;PMS7003;32029;51.358;5.628;2022-09-01T11:58:54;1.00;1.00;1.00
46302;PMS7003;32029;51.358;5.628;2022-09-01T12:01:30;2.00;2.00;1.00
46302;PMS7003;32029;51.358;5.628;2022-09-01T12:04:20;2.00;2.00;2.00
46302;PMS7003;32029;51.358;5.628;2022-09-01T12:06:56;2.00;2.00;1.00
46302;PMS7003;32029;51.358;5.628;2022-09-01T12:09:32;2.00;1.00;1.00
46302;PMS7003;32029;51.358;5.628;2022-09-01T12:12:02;6.00;5.00;4.00
46302;PMS7003;32029;51.358;5.628;2022-09-01T12:14:32;6.00;6.00;5.00
46302;PMS7003;32029;51.358;5.628;2022-09-01T12:17:02;4.60;4.20;3.60
46302;PMS7003;32029;51.358;5.628;2022-09-01T12:19:33;5.00;5.00;4.20
46302;PMS7003;32029;51.358;5.628;2022-09-01T12:22:14;10.33;8.00;6.00
46302;PMS7003;32029;51.358;5.628;2022-09-01T12:24:45;12.40;11.40;9.00
46302;PMS7003;32029;51.358;5.628;2022-09-01T12:27:18;14.00;13.00;9.00
46302;PMS7003;32029;51.358;5.628;2022-09-01T12:29:46;17.50;16.00;9.00
46302;PMS7003;32029;51.358;5.628;2022-09-01T12:32:15;15.67;13.33;11.00
46302;PMS7003;32029;51.358;5.628;2022-09-01T12:34:59;4.20;3.00;2.80
46302;PMS7003;32029;51.358;5.628;2022-09-01T12:37:28;2.00;2.00;2.00
46302;PMS7003;32029;51.358;5.628;2022-09-01T12:39:57;3.00;2.00;1.80
46302;PMS7003;32029;51.358;5.628;2022-09-01T12:42:30;3.20;2.40;1.60
46302;PMS7003;32029;51.358;5.628;2022-09-01T12:44:59;5.00;3.00;2.00
46302;PMS7003;32029;51.358;5.628;2022-09-01T12:50:04;5.80;4.80;4.00
46302;PMS7003;32029;51.358;5.628;2022-09-01T12:52:35;2.00;2.00;1.60
46302;PMS7003;32029;51.358;5.628;2022-09-01T12:55:17;2.00;1.00;0.40
46302;PMS7003;32029;51.358;5.628;2022-09-01T12:57:50;1.00;0.00;0.00
46302;PMS7003;32029;51.358;5.628;2022-09-01T13:00:22;5.20;5.00;4.00
46302;PMS7003;32029;51.358;5.628;2022-09-01T13:05:30;5.80;5.80;4.20
46302;PMS7003;32029;51.358;5.628;2022-09-01T13:08:05;2.00;2.00;2.00
46302;PMS7003;32029;51.358;5.628;2022-09-01T13:13:24;2.33;0.67;0.33
46302;PMS7003;32029;51.358;5.628;2022-09-01T13:15:53;2.00;2.00;2.00
46302;PMS7003;32029;51.358;5.628;2022-09-01T13:18:23;2.00;1.00;1.00
46302;PMS7003;32029;51.358;5.628;2022-09-01T13:20:52;3.20;3.20;2.40
46302;PMS7003;32029;51.358;5.628;2022-09-01T13:23:20;5.00;4.60;3.00
46302;PMS7003;32029;51.358;5.628;2022-09-01T13:25:48;5.80;4.80;4.00
46302;PMS7003;32029;51.358;5.628;2022-09-01T13:28:16;3.00;3.00;2.20
46302;PMS7003;32029;51.358;5.628;2022-09-01T13:30:46;8.00;8.00;5.40
46302;PMS7003;32029;51.358;5.628;2022-09-01T13:33:20;7.00;6.40;5.20
46302;PMS7003;32029;51.358;5.628;2022-09-01T13:35:47;10.67;8.33;7.00
46302;PMS7003;32029;51.358;5.628;2022-09-01T13:38:16;7.00;5.60;4.00
46302;PMS7003;32029;51.358;5.628;2022-09-01T13:40:45;4.20;4.00;4.00
46302;PMS7003;32029;51.358;5.628;2022-09-01T13:43:14;7.00;5.00;4.00
46302;PMS7003;32029;51.358;5.628;2022-09-01T13:45:44;11.00;10.00;6.33
46302;PMS7003;32029;51.358;5.628;2022-09-01T13:48:13;3.60;3.60;3.00
46302;PMS7003;32029;51.358;5.628;2022-09-01T13:50:45;0.00;0.00;0.00
46302;PMS7003;32029;51.358;5.628;2022-09-01T13:53:16;0.67;0.67;0.67
46302;PMS7003;32029;51.358;5.628;2022-09-01T13:55:44;0.80;0.80;0.20
46302;PMS7003;32029;51.358;5.628;2022-09-01T13:58:10;0.00;0.00;0.00
46302;PMS7003;32029;51.358;5.628;2022-09-01T14:00:39;0.00;0.00;0.00
46302;PMS7003;32029;51.358;5.628;2022-09-01T14:03:12;0.00;0.00;0.00
46302;PMS7003;32029;51.358;5.628;2022-09-01T14:05:46;2.00;0.67;0.67
46302;PMS7003;32029;51.358;5.628;2022-09-01T14:08:16;1.20;0.00;0.00
46302;PMS7003;32029;51.358;5.628;2022-09-01T14:10:45;1.00;0.00;0.00
46302;PMS7003;32029;51.358;5.628;2022-09-01T14:13:16;1.00;1.00;1.00
46302;PMS7003;32029;51.358;5.628;2022-09-01T14:15:43;1.00;1.00;1.00
46302;PMS7003;32029;51.358;5.628;2022-09-01T14:18:12;0.00;0.00;0.00
46302;PMS7003;32029;51.358;5.628;2022-09-01T14:20:41;1.33;0.33;0.00
46302;PMS7003;32029;51.358;5.628;2022-09-01T14:23:11;2.60;2.00;2.00
46302;PMS7003;32029;51.358;5.628;2022-09-01T14:25:42;1.40;1.40;1.00
46302;PMS7003;32029;51.358;5.628;2022-09-01T14:28:10;1.00;0.00;0.00
46302;PMS7003;32029;51.358;5.628;2022-09-01T14:30:39;0.00;0.00;0.00
46302;PMS7003;32029;51.358;5.628;2022-09-01T14:33:09;0.20;0.20;0.20
46302;PMS7003;32029;51.358;5.628;2022-09-01T14:35:41;2.00;1.00;0.00
46302;PMS7003;32029;51.358;5.628;2022-09-01T14:38:09;3.33;2.00;1.67
46302;PMS7003;32029;51.358;5.628;2022-09-01T14:40:37;1.00;1.00;0.00
46302;PMS7003;32029;51.358;5.628;2022-09-01T14:43:07;2.60;1.20;1.00
46302;PMS7003;32029;51.358;5.628;2022-09-01T14:45:36;1.00;1.00;1.00
46302;PMS7003;32029;51.358;5.628;2022-09-01T14:48:04;3.00;1.00;1.00
46302;PMS7003;32029;51.358;5.628;2022-09-01T14:50:31;1.00;1.00;1.00
46302;PMS7003;32029;51.358;5.628;2022-09-01T14:53:08;3.00;1.60;1.00
46302;PMS7003;32029;51.358;5.628;2022-09-01T14:56:12;4.00;1.20;1.20
46302;PMS7003;32029;51.358;5.628;2022-09-01T14:59:15;2.67;2.67;1.67
46302;PMS7003;32029;51.358;5.628;2022-09-01T15:02:16;3.33;2.67;2.00
46302;PMS7003;32029;51.358;5.628;2022-09-01T15:05:15;4.20;3.60;2.60
46302;PMS7003;32029;51.358;5.628;2022-09-01T15:08:11;3.00;3.00;2.33
46302;PMS7003;32029;51.358;5.628;2022-09-01T15:10:47;2.67;2.33;2.00
46302;PMS7003;32029;51.358;5.628;2022-09-01T15:13:46;2.00;2.00;2.00
46302;PMS7003;32029;51.358;5.628;2022-09-01T15:16:17;2.00;1.00;1.00
46302;PMS7003;32029;51.358;5.628;2022-09-01T15:18:45;4.67;2.67;2.00
46302;PMS7003;32029;51.358;5.628;2022-09-01T15:21:19;2.67;1.00;1.00
46302;PMS7003;32029;51.358;5.628;2022-09-01T15:23:48;4.20;3.00;2.80
46302;PMS7003;32029;51.358;5.628;2022-09-01T15:26:16;6.00;5.00;4.00
46302;PMS7003;32029;51.358;5.628;2022-09-01T15:28:43;5.00;3.00;2.33
46302;PMS7003;32029;51.358;5.628;2022-09-01T15:31:11;5.67;4.67;4.00
46302;PMS7003;32029;51.358;5.628;2022-09-01T15:33:39;2.00;2.00;1.00
46302;PMS7003;32029;51.358;5.628;2022-09-01T15:36:07;5.00;3.00;2.00
46302;PMS7003;32029;51.358;5.628;2022-09-01T15:38:35;4.80;4.00;3.00
46302;PMS7003;32029;51.358;5.628;2022-09-01T15:41:03;9.20;6.20;5.60